Station Historical Data
Daily Summary for April 26, 2017 Units:  Both    English   Metric
« Previous Day
Next Day »
Daily Weekly Monthly Yearly Custom
  High: Low: Average:
Temperature: 75.2 °F /  24 °C 54.6 °F /  12.6 °C 63 °F /  17.2 °C
Dew Point: 61.7 °F /  16.5 °C 50.8 °F /  10.4 °C 55.1 °F /  12.8 °C
Humidity: 87% 59% 76%
Wind Speed: 7.0mph /  11.3km/h - 1.7mph /  2.7km/h
Wind Gust: 12.0mph /  19.3km/h - -
Wind- - ESE
Pressure: 29.83 in /  1010 hPa 29.63 in /  1003.3 hPa -
Precipitation: 0.00 in /  0 mm    
Historical Graphs
 
 
Tabular Data for April 26, 2017
Time Temperature Dew Point Pressure Wind Wind Speed Wind Gust Humidity Rainfall Rate (Hourly)
00:00 58.3 °F /  14.6 °C 52.5 °F /  11.4 °C 29.83in /  1010hPa Calm     81% 0.00in /  0mm
00:05 58.1 °F /  14.5 °C 52.3 °F /  11.3 °C 29.82in /  1009.7hPa Calm     81% 0.00in /  0mm
00:10 58.0 °F /  14.4 °C 52.2 °F /  11.2 °C 29.82in /  1009.7hPa Calm     81% 0.00in /  0mm
00:15 58.0 °F /  14.4 °C 52.5 °F /  11.4 °C 29.82in /  1009.7hPa Calm     82% 0.00in /  0mm
00:20 58.0 °F /  14.4 °C 52.5 °F /  11.4 °C 29.82in /  1009.7hPa NE 2.0mph /  3.2km/h 4.0mph /  6.4km/h 82% 0.00in /  0mm
00:25 58.1 °F /  14.5 °C 52.6 °F /  11.4 °C 29.82in /  1009.7hPa NE 2.0mph /  3.2km/h 5.0mph /  8km/h 82% 0.00in /  0mm
00:30 58.1 °F /  14.5 °C 52.6 °F /  11.4 °C 29.82in /  1009.7hPa NE 2.0mph /  3.2km/h 5.0mph /  8km/h 82% 0.00in /  0mm
00:35 58.1 °F /  14.5 °C 52.6 °F /  11.4 °C 29.82in /  1009.7hPa NE 2.0mph /  3.2km/h 4.0mph /  6.4km/h 82% 0.00in /  0mm
00:40 58.1 °F /  14.5 °C 52.6 °F /  11.4 °C 29.82in /  1009.7hPa Calm   4.0mph /  6.4km/h 82% 0.00in /  0mm
00:45 58.1 °F /  14.5 °C 52.6 °F /  11.4 °C 29.82in /  1009.7hPa NE 1.0mph /  1.6km/h 4.0mph /  6.4km/h 82% 0.00in /  0mm
00:50 58.1 °F /  14.5 °C 52.6 °F /  11.4 °C 29.82in /  1009.7hPa NE 2.0mph /  3.2km/h 3.0mph /  4.8km/h 82% 0.00in /  0mm
00:55 58.1 °F /  14.5 °C 52.6 °F /  11.4 °C 29.82in /  1009.7hPa NE 2.0mph /  3.2km/h 4.0mph /  6.4km/h 82% 0.00in /  0mm
01:00 58.0 °F /  14.4 °C 52.5 °F /  11.4 °C 29.81in /  1009.4hPa ENE 2.0mph /  3.2km/h 5.0mph /  8km/h 82% 0.00in /  0mm
01:05 58.0 °F /  14.4 °C 52.5 °F /  11.4 °C 29.81in /  1009.4hPa ENE 2.0mph /  3.2km/h 5.0mph /  8km/h 82% 0.00in /  0mm
01:10 57.9 °F /  14.4 °C 52.4 °F /  11.3 °C 29.82in /  1009.7hPa ENE 2.0mph /  3.2km/h 5.0mph /  8km/h 82% 0.00in /  0mm
01:15 57.9 °F /  14.4 °C 52.4 °F /  11.3 °C 29.81in /  1009.4hPa NE 2.0mph /  3.2km/h 4.0mph /  6.4km/h 82% 0.00in /  0mm
01:20 57.8 °F /  14.3 °C 52.7 °F /  11.5 °C 29.81in /  1009.4hPa ENE 2.0mph /  3.2km/h 4.0mph /  6.4km/h 83% 0.00in /  0mm
01:25 57.8 °F /  14.3 °C 52.7 °F /  11.5 °C 29.81in /  1009.4hPa ENE 1.0mph /  1.6km/h 3.0mph /  4.8km/h 83% 0.00in /  0mm
01:30 57.7 °F /  14.3 °C 52.6 °F /  11.4 °C 29.81in /  1009.4hPa ENE 1.0mph /  1.6km/h 3.0mph /  4.8km/h 83% 0.00in /  0mm
01:35 57.7 °F /  14.3 °C 52.6 °F /  11.4 °C 29.81in /  1009.4hPa NE 1.0mph /  1.6km/h 3.0mph /  4.8km/h 83% 0.00in /  0mm
01:40 57.7 °F /  14.3 °C 52.6 °F /  11.4 °C 29.82in /  1009.7hPa NE 2.0mph /  3.2km/h 3.0mph /  4.8km/h 83% 0.00in /  0mm
01:45 57.6 °F /  14.2 °C 52.5 °F /  11.4 °C 29.82in /  1009.7hPa NE 2.0mph /  3.2km/h 3.0mph /  4.8km/h 83% 0.00in /  0mm
01:50 57.5 °F /  14.2 °C 52.7 °F /  11.5 °C 29.82in /  1009.7hPa Calm   2.0mph /  3.2km/h 84% 0.00in /  0mm
01:55 57.4 °F /  14.1 °C 52.6 °F /  11.4 °C 29.82in /  1009.7hPa Calm   2.0mph /  3.2km/h 84% 0.00in /  0mm
02:00 57.4 °F /  14.1 °C 52.6 °F /  11.4 °C 29.81in /  1009.4hPa Calm   2.0mph /  3.2km/h 84% 0.00in /  0mm
02:05 57.4 °F /  14.1 °C 52.6 °F /  11.4 °C 29.81in /  1009.4hPa Calm   2.0mph /  3.2km/h 84% 0.00in /  0mm
02:10 57.3 °F /  14.1 °C 52.5 °F /  11.4 °C 29.81in /  1009.4hPa Calm     84% 0.00in /  0mm
02:15 57.3 °F /  14.1 °C 52.5 °F /  11.4 °C 29.81in /  1009.4hPa Calm     84% 0.00in /  0mm
02:20 57.3 °F /  14.1 °C 52.5 °F /  11.4 °C 29.81in /  1009.4hPa Calm     84% 0.00in /  0mm
02:25 57.3 °F /  14.1 °C 52.5 °F /  11.4 °C 29.81in /  1009.4hPa Calm     84% 0.00in /  0mm
02:30 57.3 °F /  14.1 °C 52.5 °F /  11.4 °C 29.81in /  1009.4hPa Calm     84% 0.00in /  0mm
02:35 57.3 °F /  14.1 °C 52.5 °F /  11.4 °C 29.81in /  1009.4hPa Calm     84% 0.00in /  0mm
02:40 57.3 °F /  14.1 °C 52.5 °F /  11.4 °C 29.81in /  1009.4hPa Calm     84% 0.00in /  0mm
02:45 57.2 °F /  14 °C 52.4 °F /  11.3 °C 29.81in /  1009.4hPa Calm     84% 0.00in /  0mm
02:50 57.1 °F /  13.9 °C 52.3 °F /  11.3 °C 29.80in /  1009hPa Calm     84% 0.00in /  0mm
02:55 56.9 °F /  13.8 °C 52.1 °F /  11.2 °C 29.80in /  1009hPa Calm     84% 0.00in /  0mm
03:00 56.7 °F /  13.7 °C 52.2 °F /  11.2 °C 29.80in /  1009hPa Calm     85% 0.00in /  0mm
03:05 56.6 °F /  13.7 °C 52.1 °F /  11.2 °C 29.80in /  1009hPa Calm     85% 0.00in /  0mm
03:10 56.6 °F /  13.7 °C 52.1 °F /  11.2 °C 29.79in /  1008.7hPa Calm     85% 0.00in /  0mm
03:15 56.5 °F /  13.6 °C 52.0 °F /  11.1 °C 29.79in /  1008.7hPa Calm     85% 0.00in /  0mm
03:20 56.4 °F /  13.6 °C 52.3 °F /  11.3 °C 29.79in /  1008.7hPa Calm   3.0mph /  4.8km/h 86% 0.00in /  0mm
03:25 56.2 °F /  13.4 °C 52.1 °F /  11.2 °C 29.79in /  1008.7hPa ENE 1.0mph /  1.6km/h 5.0mph /  8km/h 86% 0.00in /  0mm
03:30 56.0 °F /  13.3 °C 51.9 °F /  11.1 °C 29.79in /  1008.7hPa East 2.0mph /  3.2km/h 5.0mph /  8km/h 86% 0.00in /  0mm
03:35 55.8 °F /  13.2 °C 51.7 °F /  10.9 °C 29.78in /  1008.4hPa East 3.0mph /  4.8km/h 5.0mph /  8km/h 86% 0.00in /  0mm
03:40 55.7 °F /  13.2 °C 51.6 °F /  10.9 °C 29.78in /  1008.4hPa East 2.0mph /  3.2km/h 4.0mph /  6.4km/h 86% 0.00in /  0mm
03:45 55.6 °F /  13.1 °C 51.8 °F /  11 °C 29.78in /  1008.4hPa NE 3.0mph /  4.8km/h 4.0mph /  6.4km/h 87% 0.00in /  0mm
03:50 55.5 °F /  13.1 °C 51.7 °F /  10.9 °C 29.78in /  1008.4hPa ENE 3.0mph /  4.8km/h 5.0mph /  8km/h 87% 0.00in /  0mm
03:55 55.5 °F /  13.1 °C 51.7 °F /  10.9 °C 29.78in /  1008.4hPa ENE 2.0mph /  3.2km/h 5.0mph /  8km/h 87% 0.00in /  0mm
04:00 55.4 °F /  13 °C 51.6 °F /  10.9 °C 29.78in /  1008.4hPa East 5.0mph /  8km/h 7.0mph /  11.3km/h 87% 0.00in /  0mm
04:05 55.5 °F /  13.1 °C 51.7 °F /  10.9 °C 29.78in /  1008.4hPa East 3.0mph /  4.8km/h 7.0mph /  11.3km/h 87% 0.00in /  0mm
04:10 55.6 °F /  13.1 °C 51.8 °F /  11 °C 29.78in /  1008.4hPa East 3.0mph /  4.8km/h 8.0mph /  12.9km/h 87% 0.00in /  0mm
04:15 55.6 °F /  13.1 °C 51.8 °F /  11 °C 29.78in /  1008.4hPa East 3.0mph /  4.8km/h 8.0mph /  12.9km/h 87% 0.00in /  0mm
04:20 55.7 °F /  13.2 °C 51.9 °F /  11.1 °C 29.77in /  1008hPa East 3.0mph /  4.8km/h 6.0mph /  9.7km/h 87% 0.00in /  0mm
04:25 55.7 °F /  13.2 °C 51.9 °F /  11.1 °C 29.77in /  1008hPa ENE 3.0mph /  4.8km/h 6.0mph /  9.7km/h 87% 0.00in /  0mm
04:30 55.7 °F /  13.2 °C 51.9 °F /  11.1 °C 29.77in /  1008hPa East 1.0mph /  1.6km/h 7.0mph /  11.3km/h 87% 0.00in /  0mm
04:35 55.8 °F /  13.2 °C 52.0 °F /  11.1 °C 29.77in /  1008hPa East 3.0mph /  4.8km/h 8.0mph /  12.9km/h 87% 0.00in /  0mm
04:40 55.8 °F /  13.2 °C 52.0 °F /  11.1 °C 29.77in /  1008hPa East 3.0mph /  4.8km/h 8.0mph /  12.9km/h 87% 0.00in /  0mm
04:45 55.8 °F /  13.2 °C 51.7 °F /  10.9 °C 29.77in /  1008hPa East 2.0mph /  3.2km/h 6.0mph /  9.7km/h 86% 0.00in /  0mm
04:50 55.8 °F /  13.2 °C 51.7 °F /  10.9 °C 29.77in /  1008hPa ENE 1.0mph /  1.6km/h 5.0mph /  8km/h 86% 0.00in /  0mm
04:55 55.8 °F /  13.2 °C 51.7 °F /  10.9 °C 29.77in /  1008hPa Calm   3.0mph /  4.8km/h 86% 0.00in /  0mm
05:00 55.8 °F /  13.2 °C 51.7 °F /  10.9 °C 29.77in /  1008hPa ENE 3.0mph /  4.8km/h 3.0mph /  4.8km/h 86% 0.00in /  0mm
05:05 55.8 °F /  13.2 °C 51.7 °F /  10.9 °C 29.77in /  1008hPa East 1.0mph /  1.6km/h 3.0mph /  4.8km/h 86% 0.00in /  0mm
05:10 55.6 °F /  13.1 °C 51.5 °F /  10.8 °C 29.77in /  1008hPa East 2.0mph /  3.2km/h 3.0mph /  4.8km/h 86% 0.00in /  0mm
05:15 55.5 °F /  13.1 °C 51.4 °F /  10.8 °C 29.77in /  1008hPa Calm   5.0mph /  8km/h 86% 0.00in /  0mm
05:20 55.5 °F /  13.1 °C 51.4 °F /  10.8 °C 29.77in /  1008hPa ENE 1.0mph /  1.6km/h 3.0mph /  4.8km/h 86% 0.00in /  0mm
05:25 55.4 °F /  13 °C 51.6 °F /  10.9 °C 29.77in /  1008hPa ENE 1.0mph /  1.6km/h 2.0mph /  3.2km/h 87% 0.00in /  0mm
05:30 55.3 °F /  12.9 °C 51.5 °F /  10.8 °C 29.77in /  1008hPa Calm   3.0mph /  4.8km/h 87% 0.00in /  0mm
05:35 55.3 °F /  12.9 °C 51.5 °F /  10.8 °C 29.78in /  1008.4hPa Calm   3.0mph /  4.8km/h 87% 0.00in /  0mm
05:40 55.3 °F /  12.9 °C 51.5 °F /  10.8 °C 29.78in /  1008.4hPa Calm   1.0mph /  1.6km/h 87% 0.00in /  0mm
05:45 55.4 °F /  13 °C 51.6 °F /  10.9 °C 29.78in /  1008.4hPa Calm     87% 0.00in /  0mm
05:50 55.4 °F /  13 °C 51.6 °F /  10.9 °C 29.78in /  1008.4hPa Calm     87% 0.00in /  0mm
05:55 55.4 °F /  13 °C 51.6 °F /  10.9 °C 29.78in /  1008.4hPa Calm     87% 0.00in /  0mm
06:00 55.3 °F /  12.9 °C 51.5 °F /  10.8 °C 29.78in /  1008.4hPa Calm     87% 0.00in /  0mm
06:05 55.3 °F /  12.9 °C 51.5 °F /  10.8 °C 29.78in /  1008.4hPa Calm     87% 0.00in /  0mm
06:10 55.3 °F /  12.9 °C 51.5 °F /  10.8 °C 29.77in /  1008hPa Calm     87% 0.00in /  0mm
06:15 55.3 °F /  12.9 °C 51.5 °F /  10.8 °C 29.77in /  1008hPa Calm     87% 0.00in /  0mm
06:20 55.2 °F /  12.9 °C 51.4 °F /  10.8 °C 29.77in /  1008hPa Calm     87% 0.00in /  0mm
06:25 55.2 °F /  12.9 °C 51.4 °F /  10.8 °C 29.77in /  1008hPa Calm     87% 0.00in /  0mm
06:30 55.0 °F /  12.8 °C 51.2 °F /  10.7 °C 29.78in /  1008.4hPa Calm     87% 0.00in /  0mm
06:35 54.8 °F /  12.7 °C 51.0 °F /  10.6 °C 29.78in /  1008.4hPa Calm     87% 0.00in /  0mm
06:40 54.7 °F /  12.6 °C 50.9 °F /  10.5 °C 29.78in /  1008.4hPa Calm     87% 0.00in /  0mm
06:45 54.6 °F /  12.6 °C 50.8 °F /  10.4 °C 29.79in /  1008.7hPa Calm     87% 0.00in /  0mm
06:50 54.7 °F /  12.6 °C 50.9 °F /  10.5 °C 29.78in /  1008.4hPa Calm     87% 0.00in /  0mm
06:55 55.0 °F /  12.8 °C 51.2 °F /  10.7 °C 29.78in /  1008.4hPa Calm     87% 0.00in /  0mm
07:00 55.0 °F /  12.8 °C 50.9 °F /  10.5 °C 29.78in /  1008.4hPa Calm     86% 0.00in /  0mm
07:05 55.0 °F /  12.8 °C 50.9 °F /  10.5 °C 29.78in /  1008.4hPa Calm     86% 0.00in /  0mm
07:10 55.0 °F /  12.8 °C 50.9 °F /  10.5 °C 29.78in /  1008.4hPa Calm     86% 0.00in /  0mm
07:15 55.0 °F /  12.8 °C 50.9 °F /  10.5 °C 29.78in /  1008.4hPa ENE 2.0mph /  3.2km/h 3.0mph /  4.8km/h 86% 0.00in /  0mm
07:20 55.0 °F /  12.8 °C 50.9 °F /  10.5 °C 29.78in /  1008.4hPa East 2.0mph /  3.2km/h 6.0mph /  9.7km/h 86% 0.00in /  0mm
07:25 55.0 °F /  12.8 °C 50.9 °F /  10.5 °C 29.78in /  1008.4hPa ENE 2.0mph /  3.2km/h 5.0mph /  8km/h 86% 0.00in /  0mm
07:30 55.2 °F /  12.9 °C 51.1 °F /  10.6 °C 29.78in /  1008.4hPa East 3.0mph /  4.8km/h 5.0mph /  8km/h 86% 0.00in /  0mm
07:35 55.6 °F /  13.1 °C 51.5 °F /  10.8 °C 29.79in /  1008.7hPa East 2.0mph /  3.2km/h 5.0mph /  8km/h 86% 0.00in /  0mm
07:40 55.9 °F /  13.3 °C 51.8 °F /  11 °C 29.78in /  1008.4hPa East 2.0mph /  3.2km/h 5.0mph /  8km/h 86% 0.00in /  0mm
07:45 56.4 °F /  13.6 °C 51.9 °F /  11.1 °C 29.78in /  1008.4hPa East 2.0mph /  3.2km/h 6.0mph /  9.7km/h 85% 0.00in /  0mm
07:50 56.7 °F /  13.7 °C 51.9 °F /  11.1 °C 29.78in /  1008.4hPa East 2.0mph /  3.2km/h 6.0mph /  9.7km/h 84% 0.00in /  0mm
07:55 57.0 °F /  13.9 °C 51.9 °F /  11.1 °C 29.78in /  1008.4hPa East 1.0mph /  1.6km/h 5.0mph /  8km/h 83% 0.00in /  0mm
08:00 57.4 °F /  14.1 °C 52.3 °F /  11.3 °C 29.78in /  1008.4hPa East 1.0mph /  1.6km/h 7.0mph /  11.3km/h 83% 0.00in /  0mm
08:05 57.8 °F /  14.3 °C 52.3 °F /  11.3 °C 29.79in /  1008.7hPa East 3.0mph /  4.8km/h 7.0mph /  11.3km/h 82% 0.00in /  0mm
08:10 57.7 °F /  14.3 °C 52.2 °F /  11.2 °C 29.79in /  1008.7hPa ESE 2.0mph /  3.2km/h 6.0mph /  9.7km/h 82% 0.00in /  0mm
08:15 57.7 °F /  14.3 °C 52.2 °F /  11.2 °C 29.79in /  1008.7hPa ESE 3.0mph /  4.8km/h 6.0mph /  9.7km/h 82% 0.00in /  0mm
08:20 57.6 °F /  14.2 °C 52.1 °F /  11.2 °C 29.79in /  1008.7hPa East 2.0mph /  3.2km/h 6.0mph /  9.7km/h 82% 0.00in /  0mm
08:25 57.7 °F /  14.3 °C 52.2 °F /  11.2 °C 29.79in /  1008.7hPa East 2.0mph /  3.2km/h 7.0mph /  11.3km/h 82% 0.00in /  0mm
08:30 57.9 °F /  14.4 °C 52.4 °F /  11.3 °C 29.79in /  1008.7hPa SE 1.0mph /  1.6km/h 5.0mph /  8km/h 82% 0.00in /  0mm
08:35 58.1 °F /  14.5 °C 52.6 °F /  11.4 °C 29.79in /  1008.7hPa East 2.0mph /  3.2km/h 5.0mph /  8km/h 82% 0.00in /  0mm
08:40 58.2 °F /  14.6 °C 52.4 °F /  11.3 °C 29.79in /  1008.7hPa East 2.0mph /  3.2km/h 5.0mph /  8km/h 81% 0.00in /  0mm
08:45 58.5 °F /  14.7 °C 52.7 °F /  11.5 °C 29.79in /  1008.7hPa East 2.0mph /  3.2km/h 5.0mph /  8km/h 81% 0.00in /  0mm
08:50 58.6 °F /  14.8 °C 52.8 °F /  11.6 °C 29.79in /  1008.7hPa East 2.0mph /  3.2km/h 5.0mph /  8km/h 81% 0.00in /  0mm
08:55 58.9 °F /  14.9 °C 53.1 °F /  11.7 °C 29.79in /  1008.7hPa NE 5.0mph /  8km/h 5.0mph /  8km/h 81% 0.00in /  0mm
09:00 58.9 °F /  14.9 °C 53.1 °F /  11.7 °C 29.79in /  1008.7hPa ESE 2.0mph /  3.2km/h 5.0mph /  8km/h 81% 0.00in /  0mm
09:05 59.1 °F /  15.1 °C 52.9 °F /  11.6 °C 29.79in /  1008.7hPa East 6.0mph /  9.7km/h 7.0mph /  11.3km/h 80% 0.00in /  0mm
09:10 59.1 °F /  15.1 °C 52.9 °F /  11.6 °C 29.79in /  1008.7hPa East 3.0mph /  4.8km/h 7.0mph /  11.3km/h 80% 0.00in /  0mm
09:15 59.4 °F /  15.2 °C 53.2 °F /  11.8 °C 29.79in /  1008.7hPa ESE 2.0mph /  3.2km/h 7.0mph /  11.3km/h 80% 0.00in /  0mm
09:20 59.4 °F /  15.2 °C 52.9 °F /  11.6 °C 29.80in /  1009hPa SSE 3.0mph /  4.8km/h 5.0mph /  8km/h 79% 0.00in /  0mm
09:25 59.6 °F /  15.3 °C 53.1 °F /  11.7 °C 29.80in /  1009hPa SSE 1.0mph /  1.6km/h 6.0mph /  9.7km/h 79% 0.00in /  0mm
09:30 59.9 °F /  15.5 °C 53.0 °F /  11.7 °C 29.80in /  1009hPa Calm   3.0mph /  4.8km/h 78% 0.00in /  0mm
09:35 60.3 °F /  15.7 °C 53.4 °F /  11.9 °C 29.79in /  1008.7hPa SE 1.0mph /  1.6km/h 4.0mph /  6.4km/h 78% 0.00in /  0mm
09:40 60.6 °F /  15.9 °C 53.7 °F /  12.1 °C 29.79in /  1008.7hPa SSE 5.0mph /  8km/h 6.0mph /  9.7km/h 78% 0.00in /  0mm
09:45 60.5 °F /  15.8 °C 53.3 °F /  11.8 °C 29.78in /  1008.4hPa SSE 2.0mph /  3.2km/h 6.0mph /  9.7km/h 77% 0.00in /  0mm
09:50 60.7 °F /  15.9 °C 53.4 °F /  11.9 °C 29.79in /  1008.7hPa SSE 1.0mph /  1.6km/h 4.0mph /  6.4km/h 77% 0.00in /  0mm
09:55 60.9 °F /  16.1 °C 53.3 °F /  11.8 °C 29.79in /  1008.7hPa South 1.0mph /  1.6km/h 5.0mph /  8km/h 76% 0.00in /  0mm
10:00 61.0 °F /  16.1 °C 53.4 °F /  11.9 °C 29.79in /  1008.7hPa Calm   4.0mph /  6.4km/h 76% 0.00in /  0mm
10:05 60.9 °F /  16.1 °C 52.9 °F /  11.6 °C 29.79in /  1008.7hPa South 2.0mph /  3.2km/h 5.0mph /  8km/h 75% 0.00in /  0mm
10:10 61.4 °F /  16.3 °C 53.8 °F /  12.1 °C 29.79in /  1008.7hPa South 2.0mph /  3.2km/h 5.0mph /  8km/h 76% 0.00in /  0mm
10:15 61.4 °F /  16.3 °C 53.4 °F /  11.9 °C 29.79in /  1008.7hPa SSE 3.0mph /  4.8km/h 6.0mph /  9.7km/h 75% 0.00in /  0mm
10:20 61.5 °F /  16.4 °C 53.5 °F /  11.9 °C 29.79in /  1008.7hPa SSE 3.0mph /  4.8km/h 6.0mph /  9.7km/h 75% 0.00in /  0mm
10:25 61.9 °F /  16.6 °C 53.9 °F /  12.2 °C 29.79in /  1008.7hPa SSE 2.0mph /  3.2km/h 6.0mph /  9.7km/h 75% 0.00in /  0mm
10:30 61.8 °F /  16.6 °C 53.8 °F /  12.1 °C 29.79in /  1008.7hPa East 2.0mph /  3.2km/h 6.0mph /  9.7km/h 75% 0.00in /  0mm
10:35 61.9 °F /  16.6 °C 53.5 °F /  11.9 °C 29.79in /  1008.7hPa SE 2.0mph /  3.2km/h 6.0mph /  9.7km/h 74% 0.00in /  0mm
10:40 62.6 °F /  17 °C 54.2 °F /  12.3 °C 29.79in /  1008.7hPa SSE 2.0mph /  3.2km/h 5.0mph /  8km/h 74% 0.00in /  0mm
10:45 62.5 °F /  16.9 °C 53.7 °F /  12.1 °C 29.78in /  1008.4hPa East 3.0mph /  4.8km/h 6.0mph /  9.7km/h 73% 0.00in /  0mm
10:50 62.1 °F /  16.7 °C 53.3 °F /  11.8 °C 29.79in /  1008.7hPa SE 3.0mph /  4.8km/h 6.0mph /  9.7km/h 73% 0.00in /  0mm
10:55 62.2 °F /  16.8 °C 53.4 °F /  11.9 °C 29.79in /  1008.7hPa East 3.0mph /  4.8km/h 3.0mph /  4.8km/h 73% 0.00in /  0mm
11:00 62.0 °F /  16.7 °C 53.6 °F /  12 °C 29.79in /  1008.7hPa NE 2.0mph /  3.2km/h 7.0mph /  11.3km/h 74% 0.00in /  0mm
11:05 62.0 °F /  16.7 °C 53.2 °F /  11.8 °C 29.79in /  1008.7hPa Calm   6.0mph /  9.7km/h 73% 0.00in /  0mm
11:10 62.1 °F /  16.7 °C 53.7 °F /  12.1 °C 29.79in /  1008.7hPa East 1.0mph /  1.6km/h 6.0mph /  9.7km/h 74% 0.00in /  0mm
11:15 62.3 °F /  16.8 °C 53.9 °F /  12.2 °C 29.79in /  1008.7hPa ENE 1.0mph /  1.6km/h 5.0mph /  8km/h 74% 0.00in /  0mm
11:20 62.4 °F /  16.9 °C 54.0 °F /  12.2 °C 29.78in /  1008.4hPa ENE 2.0mph /  3.2km/h 7.0mph /  11.3km/h 74% 0.00in /  0mm
11:25 62.6 °F /  17 °C 54.6 °F /  12.6 °C 29.78in /  1008.4hPa ENE 2.0mph /  3.2km/h 7.0mph /  11.3km/h 75% 0.00in /  0mm
11:30 62.4 °F /  16.9 °C 54.0 °F /  12.2 °C 29.78in /  1008.4hPa NE 1.0mph /  1.6km/h 6.0mph /  9.7km/h 74% 0.00in /  0mm
11:35 62.6 °F /  17 °C 54.2 °F /  12.3 °C 29.78in /  1008.4hPa Calm   5.0mph /  8km/h 74% 0.00in /  0mm
11:40 62.9 °F /  17.2 °C 54.5 °F /  12.5 °C 29.78in /  1008.4hPa SE 2.0mph /  3.2km/h 7.0mph /  11.3km/h 74% 0.00in /  0mm
11:45 62.2 °F /  16.8 °C 53.8 °F /  12.1 °C 29.78in /  1008.4hPa ENE 3.0mph /  4.8km/h 6.0mph /  9.7km/h 74% 0.00in /  0mm
11:50 62.6 °F /  17 °C 53.4 °F /  11.9 °C 29.78in /  1008.4hPa Calm   5.0mph /  8km/h 72% 0.00in /  0mm
11:55 62.5 °F /  16.9 °C 53.7 °F /  12.1 °C 29.78in /  1008.4hPa Calm   5.0mph /  8km/h 73% 0.00in /  0mm
12:00 63.0 °F /  17.2 °C 54.2 °F /  12.3 °C 29.78in /  1008.4hPa SSW 1.0mph /  1.6km/h 4.0mph /  6.4km/h 73% 0.00in /  0mm
12:05 63.6 °F /  17.6 °C 55.5 °F /  13.1 °C 29.78in /  1008.4hPa East 2.0mph /  3.2km/h 5.0mph /  8km/h 75% 0.00in /  0mm
12:10 63.7 °F /  17.6 °C 54.5 °F /  12.5 °C 29.77in /  1008hPa NE 3.0mph /  4.8km/h 6.0mph /  9.7km/h 72% 0.00in /  0mm
12:15 64.0 °F /  17.8 °C 55.2 °F /  12.9 °C 29.77in /  1008hPa NE 3.0mph /  4.8km/h 6.0mph /  9.7km/h 73% 0.00in /  0mm
12:20 64.0 °F /  17.8 °C 54.8 °F /  12.7 °C 29.78in /  1008.4hPa NNE 1.0mph /  1.6km/h 3.0mph /  4.8km/h 72% 0.00in /  0mm
12:25 64.5 °F /  18.1 °C 54.5 °F /  12.5 °C 29.78in /  1008.4hPa ENE 1.0mph /  1.6km/h 4.0mph /  6.4km/h 70% 0.00in /  0mm
12:30 65.1 °F /  18.4 °C 57.0 °F /  13.9 °C 29.77in /  1008hPa WNW 1.0mph /  1.6km/h 2.0mph /  3.2km/h 75% 0.00in /  0mm
12:35 64.9 °F /  18.3 °C 55.3 °F /  12.9 °C 29.77in /  1008hPa WNW 1.0mph /  1.6km/h 3.0mph /  4.8km/h 71% 0.00in /  0mm
12:40 64.5 °F /  18.1 °C 55.3 °F /  12.9 °C 29.77in /  1008hPa NNE 1.0mph /  1.6km/h 4.0mph /  6.4km/h 72% 0.00in /  0mm
12:45 65.1 °F /  18.4 °C 55.8 °F /  13.2 °C 29.76in /  1007.7hPa North 2.0mph /  3.2km/h 4.0mph /  6.4km/h 72% 0.00in /  0mm
12:50 65.5 °F /  18.6 °C 55.1 °F /  12.8 °C 29.76in /  1007.7hPa NW 1.0mph /  1.6km/h 4.0mph /  6.4km/h 69% 0.00in /  0mm
12:55 65.4 °F /  18.6 °C 55.0 °F /  12.8 °C 29.76in /  1007.7hPa NE 3.0mph /  4.8km/h 7.0mph /  11.3km/h 69% 0.00in /  0mm
13:00 65.3 °F /  18.5 °C 55.7 °F /  13.2 °C 29.76in /  1007.7hPa Calm   3.0mph /  4.8km/h 71% 0.00in /  0mm
13:05 66.3 °F /  19.1 °C 56.6 °F /  13.7 °C 29.75in /  1007.3hPa NNW 1.0mph /  1.6km/h 4.0mph /  6.4km/h 71% 0.00in /  0mm
13:10 66.9 °F /  19.4 °C 56.4 °F /  13.6 °C 29.75in /  1007.3hPa SW 1.0mph /  1.6km/h 4.0mph /  6.4km/h 69% 0.00in /  0mm
13:15 67.2 °F /  19.6 °C 57.1 °F /  13.9 °C 29.75in /  1007.3hPa SSE 3.0mph /  4.8km/h 3.0mph /  4.8km/h 70% 0.00in /  0mm
13:20 68.4 °F /  20.2 °C 57.8 °F /  14.3 °C 29.75in /  1007.3hPa SE 1.0mph /  1.6km/h 5.0mph /  8km/h 69% 0.00in /  0mm
13:25 67.4 °F /  19.7 °C 56.1 °F /  13.4 °C 29.75in /  1007.3hPa NE 4.0mph /  6.4km/h 4.0mph /  6.4km/h 67% 0.00in /  0mm
13:30 67.7 °F /  19.8 °C 57.6 °F /  14.2 °C 29.75in /  1007.3hPa ESE 1.0mph /  1.6km/h 4.0mph /  6.4km/h 70% 0.00in /  0mm
13:35 67.9 °F /  19.9 °C 55.7 °F /  13.2 °C 29.74in /  1007hPa NNE 2.0mph /  3.2km/h 4.0mph /  6.4km/h 65% 0.00in /  0mm
13:40 67.8 °F /  19.9 °C 56.0 °F /  13.3 °C 29.74in /  1007hPa NE 2.0mph /  3.2km/h 4.0mph /  6.4km/h 66% 0.00in /  0mm
13:45 68.5 °F /  20.3 °C 57.1 °F /  13.9 °C 29.74in /  1007hPa ENE 1.0mph /  1.6km/h 3.0mph /  4.8km/h 67% 0.00in /  0mm
13:50 69.5 °F /  20.8 °C 57.6 °F /  14.2 °C 29.74in /  1007hPa WNW 1.0mph /  1.6km/h 4.0mph /  6.4km/h 66% 0.00in /  0mm
13:55 69.4 °F /  20.8 °C 57.1 °F /  13.9 °C 29.74in /  1007hPa NNW 2.0mph /  3.2km/h 7.0mph /  11.3km/h 65% 0.00in /  0mm
14:00 68.6 °F /  20.3 °C 56.8 °F /  13.8 °C 29.74in /  1007hPa NNW 3.0mph /  4.8km/h 7.0mph /  11.3km/h 66% 0.00in /  0mm
14:05 68.8 °F /  20.4 °C 56.6 °F /  13.7 °C 29.74in /  1007hPa NNW 2.0mph /  3.2km/h 5.0mph /  8km/h 65% 0.00in /  0mm
14:10 69.3 °F /  20.7 °C 57.9 °F /  14.4 °C 29.74in /  1007hPa SE 2.0mph /  3.2km/h 7.0mph /  11.3km/h 67% 0.00in /  0mm
14:15 70.4 °F /  21.3 °C 57.6 °F /  14.2 °C 29.73in /  1006.7hPa NW 2.0mph /  3.2km/h 4.0mph /  6.4km/h 64% 0.00in /  0mm
14:20 70.3 °F /  21.3 °C 58.8 °F /  14.9 °C 29.73in /  1006.7hPa WNW 5.0mph /  8km/h 6.0mph /  9.7km/h 67% 0.00in /  0mm
14:25 70.8 °F /  21.6 °C 58.0 °F /  14.4 °C 29.73in /  1006.7hPa West 5.0mph /  8km/h 8.0mph /  12.9km/h 64% 0.00in /  0mm
14:30 70.4 °F /  21.3 °C 58.9 °F /  14.9 °C 29.73in /  1006.7hPa West 4.0mph /  6.4km/h 8.0mph /  12.9km/h 67% 0.00in /  0mm
14:35 71.1 °F /  21.7 °C 57.9 °F /  14.4 °C 29.73in /  1006.7hPa West 3.0mph /  4.8km/h 7.0mph /  11.3km/h 63% 0.00in /  0mm
14:40 70.9 °F /  21.6 °C 57.7 °F /  14.3 °C 29.72in /  1006.3hPa NW 3.0mph /  4.8km/h 6.0mph /  9.7km/h 63% 0.00in /  0mm
14:45 71.2 °F /  21.8 °C 58.0 °F /  14.4 °C 29.72in /  1006.3hPa North 3.0mph /  4.8km/h 6.0mph /  9.7km/h 63% 0.00in /  0mm
14:50 71.6 °F /  22 °C 58.3 °F /  14.6 °C 29.72in /  1006.3hPa NE 2.0mph /  3.2km/h 7.0mph /  11.3km/h 63% 0.00in /  0mm
14:55 71.9 °F /  22.2 °C 58.2 °F /  14.6 °C 29.71in /  1006hPa SSE 2.0mph /  3.2km/h 4.0mph /  6.4km/h 62% 0.00in /  0mm
15:00 72.2 °F /  22.3 °C 58.5 °F /  14.7 °C 29.71in /  1006hPa SE 2.0mph /  3.2km/h 5.0mph /  8km/h 62% 0.00in /  0mm
15:05 72.3 °F /  22.4 °C 58.1 °F /  14.5 °C 29.70in /  1005.6hPa ESE 2.0mph /  3.2km/h 7.0mph /  11.3km/h 61% 0.00in /  0mm
15:10 71.6 °F /  22 °C 58.8 °F /  14.9 °C 29.69in /  1005.3hPa ENE 3.0mph /  4.8km/h 7.0mph /  11.3km/h 64% 0.00in /  0mm
15:15 71.9 °F /  22.2 °C 58.6 °F /  14.8 °C 29.69in /  1005.3hPa ENE 3.0mph /  4.8km/h 12.0mph /  19.3km/h 63% 0.00in /  0mm
15:20 72.2 °F /  22.3 °C 59.3 °F /  15.2 °C 29.69in /  1005.3hPa East 7.0mph /  11.3km/h 10.0mph /  16.1km/h 64% 0.00in /  0mm
15:25 72.7 °F /  22.6 °C 59.4 °F /  15.2 °C 29.68in /  1005hPa SE 1.0mph /  1.6km/h 7.0mph /  11.3km/h 63% 0.00in /  0mm
15:30 72.8 °F /  22.7 °C 58.6 °F /  14.8 °C 29.68in /  1005hPa East 1.0mph /  1.6km/h 8.0mph /  12.9km/h 61% 0.00in /  0mm
15:35 73.1 °F /  22.8 °C 59.3 °F /  15.2 °C 29.68in /  1005hPa NE 3.0mph /  4.8km/h 12.0mph /  19.3km/h 62% 0.00in /  0mm
15:40 73.7 °F /  23.2 °C 59.9 °F /  15.5 °C 29.68in /  1005hPa NE 3.0mph /  4.8km/h 8.0mph /  12.9km/h 62% 0.00in /  0mm
15:45 73.7 °F /  23.2 °C 58.9 °F /  14.9 °C 29.68in /  1005hPa ENE 3.0mph /  4.8km/h 6.0mph /  9.7km/h 60% 0.00in /  0mm
15:50 73.9 °F /  23.3 °C 60.1 °F /  15.6 °C 29.68in /  1005hPa ENE 3.0mph /  4.8km/h 8.0mph /  12.9km/h 62% 0.00in /  0mm
15:55 73.7 °F /  23.2 °C 59.4 °F /  15.2 °C 29.68in /  1005hPa North 2.0mph /  3.2km/h 6.0mph /  9.7km/h 61% 0.00in /  0mm
16:00 74.0 °F /  23.3 °C 60.2 °F /  15.7 °C 29.68in /  1005hPa NNE 3.0mph /  4.8km/h 6.0mph /  9.7km/h 62% 0.00in /  0mm
16:05 74.2 °F /  23.4 °C 59.9 °F /  15.5 °C 29.68in /  1005hPa NNW 2.0mph /  3.2km/h 5.0mph /  8km/h 61% 0.00in /  0mm
16:10 74.4 °F /  23.6 °C 59.6 °F /  15.3 °C 29.67in /  1004.6hPa NNW 2.0mph /  3.2km/h 4.0mph /  6.4km/h 60% 0.00in /  0mm
16:15 74.5 °F /  23.6 °C 60.2 °F /  15.7 °C 29.67in /  1004.6hPa NNW 2.0mph /  3.2km/h 4.0mph /  6.4km/h 61% 0.00in /  0mm
16:20 74.8 °F /  23.8 °C 59.5 °F /  15.3 °C 29.66in /  1004.3hPa NE 2.0mph /  3.2km/h 6.0mph /  9.7km/h 59% 0.00in /  0mm
16:25 74.5 °F /  23.6 °C 59.7 °F /  15.4 °C 29.66in /  1004.3hPa NE 3.0mph /  4.8km/h 6.0mph /  9.7km/h 60% 0.00in /  0mm
16:30 74.6 °F /  23.7 °C 60.3 °F /  15.7 °C 29.66in /  1004.3hPa NE 3.0mph /  4.8km/h 7.0mph /  11.3km/h 61% 0.00in /  0mm
16:35 74.5 °F /  23.6 °C 60.6 °F /  15.9 °C 29.66in /  1004.3hPa NNE 4.0mph /  6.4km/h 6.0mph /  9.7km/h 62% 0.00in /  0mm
16:40 74.9 °F /  23.8 °C 61.0 °F /  16.1 °C 29.66in /  1004.3hPa NNE 3.0mph /  4.8km/h 8.0mph /  12.9km/h 62% 0.00in /  0mm
16:45 75.0 °F /  23.9 °C 60.2 °F /  15.7 °C 29.66in /  1004.3hPa North 4.0mph /  6.4km/h 5.0mph /  8km/h 60% 0.00in /  0mm
16:50 74.6 °F /  23.7 °C 59.8 °F /  15.4 °C 29.65in /  1003.9hPa North 4.0mph /  6.4km/h 8.0mph /  12.9km/h 60% 0.00in /  0mm
16:55 74.8 °F /  23.8 °C 60.4 °F /  15.8 °C 29.65in /  1003.9hPa NNE 2.0mph /  3.2km/h 6.0mph /  9.7km/h 61% 0.00in /  0mm
17:00 74.6 °F /  23.7 °C 60.7 °F /  15.9 °C 29.65in /  1003.9hPa NNE 3.0mph /  4.8km/h 6.0mph /  9.7km/h 62% 0.00in /  0mm
17:05 75.1 °F /  23.9 °C 61.2 °F /  16.2 °C 29.65in /  1003.9hPa NNE 3.0mph /  4.8km/h 6.0mph /  9.7km/h 62% 0.00in /  0mm
17:10 74.8 °F /  23.8 °C 60.4 °F /  15.8 °C 29.64in /  1003.6hPa NNE 3.0mph /  4.8km/h 5.0mph /  8km/h 61% 0.00in /  0mm
17:15 74.9 °F /  23.8 °C 60.5 °F /  15.8 °C 29.64in /  1003.6hPa NE 3.0mph /  4.8km/h 6.0mph /  9.7km/h 61% 0.00in /  0mm
17:20 75.2 °F /  24 °C 61.3 °F /  16.3 °C 29.64in /  1003.6hPa NNE 3.0mph /  4.8km/h 6.0mph /  9.7km/h 62% 0.00in /  0mm
17:25 75.2 °F /  24 °C 61.3 °F /  16.3 °C 29.64in /  1003.6hPa NE 4.0mph /  6.4km/h 6.0mph /  9.7km/h 62% 0.00in /  0mm
17:30 75.0 °F /  23.9 °C 60.2 °F /  15.7 °C 29.64in /  1003.6hPa NNE 3.0mph /  4.8km/h 7.0mph /  11.3km/h 60% 0.00in /  0mm
17:35 75.2 °F /  24 °C 61.7 °F /  16.5 °C 29.64in /  1003.6hPa NE 3.0mph /  4.8km/h 7.0mph /  11.3km/h 63% 0.00in /  0mm
17:40 75.2 °F /  24 °C 60.8 °F /  16 °C 29.64in /  1003.6hPa NE 3.0mph /  4.8km/h 9.0mph /  14.5km/h 61% 0.00in /  0mm
17:45 75.0 °F /  23.9 °C 60.6 °F /  15.9 °C 29.64in /  1003.6hPa NNE 4.0mph /  6.4km/h 8.0mph /  12.9km/h 61% 0.00in /  0mm
17:50 75.0 °F /  23.9 °C 61.1 °F /  16.2 °C 29.64in /  1003.6hPa NNE 5.0mph /  8km/h 7.0mph /  11.3km/h 62% 0.00in /  0mm
17:55 75.1 °F /  23.9 °C 61.2 °F /  16.2 °C 29.64in /  1003.6hPa ENE 4.0mph /  6.4km/h 7.0mph /  11.3km/h 62% 0.00in /  0mm
18:00 75.1 °F /  23.9 °C 61.6 °F /  16.4 °C 29.64in /  1003.6hPa NE 3.0mph /  4.8km/h 8.0mph /  12.9km/h 63% 0.00in /  0mm
18:05 75.0 °F /  23.9 °C 61.5 °F /  16.4 °C 29.64in /  1003.6hPa NE 3.0mph /  4.8km/h 8.0mph /  12.9km/h 63% 0.00in /  0mm
18:10 74.7 °F /  23.7 °C 60.8 °F /  16 °C 29.64in /  1003.6hPa ENE 3.0mph /  4.8km/h 8.0mph /  12.9km/h 62% 0.00in /  0mm
18:15 74.9 °F /  23.8 °C 61.5 °F /  16.4 °C 29.64in /  1003.6hPa NE 3.0mph /  4.8km/h 5.0mph /  8km/h 63% 0.00in /  0mm
18:20 75.0 °F /  23.9 °C 61.1 °F /  16.2 °C 29.64in /  1003.6hPa North 4.0mph /  6.4km/h 6.0mph /  9.7km/h 62% 0.00in /  0mm
18:25 74.8 °F /  23.8 °C 61.4 °F /  16.3 °C 29.64in /  1003.6hPa NNE 6.0mph /  9.7km/h 11.0mph /  17.7km/h 63% 0.00in /  0mm
18:30 74.3 °F /  23.5 °C 60.9 °F /  16.1 °C 29.64in /  1003.6hPa NE 5.0mph /  8km/h 11.0mph /  17.7km/h 63% 0.00in /  0mm
18:35 73.7 °F /  23.2 °C 61.2 °F /  16.2 °C 29.64in /  1003.6hPa NE 4.0mph /  6.4km/h 8.0mph /  12.9km/h 65% 0.00in /  0mm
18:40 73.5 °F /  23.1 °C 61.0 °F /  16.1 °C 29.64in /  1003.6hPa NE 3.0mph /  4.8km/h 8.0mph /  12.9km/h 65% 0.00in /  0mm
18:45 73.1 °F /  22.8 °C 61.1 °F /  16.2 °C 29.64in /  1003.6hPa NE 3.0mph /  4.8km/h 8.0mph /  12.9km/h 66% 0.00in /  0mm
18:50 72.5 °F /  22.5 °C 60.1 °F /  15.6 °C 29.63in /  1003.3hPa NE 5.0mph /  8km/h 10.0mph /  16.1km/h 65% 0.00in /  0mm
18:55 71.9 °F /  22.2 °C 59.9 °F /  15.5 °C 29.63in /  1003.3hPa NE 5.0mph /  8km/h 9.0mph /  14.5km/h 66% 0.00in /  0mm
19:00 71.3 °F /  21.8 °C 59.8 °F /  15.4 °C 29.63in /  1003.3hPa NE 4.0mph /  6.4km/h 9.0mph /  14.5km/h 67% 0.00in /  0mm
19:05 71.1 °F /  21.7 °C 59.6 °F /  15.3 °C 29.64in /  1003.6hPa ENE 4.0mph /  6.4km/h 8.0mph /  12.9km/h 67% 0.00in /  0mm
19:10 70.9 °F /  21.6 °C 59.4 °F /  15.2 °C 29.64in /  1003.6hPa North 2.0mph /  3.2km/h 7.0mph /  11.3km/h 67% 0.00in /  0mm
19:15 70.7 °F /  21.5 °C 59.6 °F /  15.3 °C 29.64in /  1003.6hPa North 2.0mph /  3.2km/h 4.0mph /  6.4km/h 68% 0.00in /  0mm
19:20 70.3 °F /  21.3 °C 59.2 °F /  15.1 °C 29.64in /  1003.6hPa North 2.0mph /  3.2km/h 8.0mph /  12.9km/h 68% 0.00in /  0mm
19:25 70.1 °F /  21.2 °C 59.5 °F /  15.3 °C 29.65in /  1003.9hPa NNE 4.0mph /  6.4km/h 4.0mph /  6.4km/h 69% 0.00in /  0mm
19:30 69.8 °F /  21 °C 58.8 °F /  14.9 °C 29.65in /  1003.9hPa North 3.0mph /  4.8km/h 7.0mph /  11.3km/h 68% 0.00in /  0mm
19:35 69.5 °F /  20.8 °C 58.9 °F /  14.9 °C 29.65in /  1003.9hPa North 3.0mph /  4.8km/h 7.0mph /  11.3km/h 69% 0.00in /  0mm
19:40 69.2 °F /  20.7 °C 58.6 °F /  14.8 °C 29.65in /  1003.9hPa NNE 3.0mph /  4.8km/h 6.0mph /  9.7km/h 69% 0.00in /  0mm
19:45 68.8 °F /  20.4 °C 58.6 °F /  14.8 °C 29.65in /  1003.9hPa North 3.0mph /  4.8km/h 6.0mph /  9.7km/h 70% 0.00in /  0mm
19:50 68.4 °F /  20.2 °C 58.2 °F /  14.6 °C 29.64in /  1003.6hPa North 2.0mph /  3.2km/h 6.0mph /  9.7km/h 70% 0.00in /  0mm
19:55 68.0 °F /  20 °C 58.2 °F /  14.6 °C 29.64in /  1003.6hPa North 2.0mph /  3.2km/h 8.0mph /  12.9km/h 71% 0.00in /  0mm
20:00 67.7 °F /  19.8 °C 58.0 °F /  14.4 °C 29.64in /  1003.6hPa North 3.0mph /  4.8km/h 4.0mph /  6.4km/h 71% 0.00in /  0mm
20:05 67.4 °F /  19.7 °C 57.7 °F /  14.3 °C 29.64in /  1003.6hPa Calm   5.0mph /  8km/h 71% 0.00in /  0mm
20:10 67.2 °F /  19.6 °C 57.9 °F /  14.4 °C 29.64in /  1003.6hPa North 1.0mph /  1.6km/h 3.0mph /  4.8km/h 72% 0.00in /  0mm
20:15 66.8 °F /  19.3 °C 57.9 °F /  14.4 °C 29.64in /  1003.6hPa NNE 2.0mph /  3.2km/h 4.0mph /  6.4km/h 73% 0.00in /  0mm
20:20 66.6 °F /  19.2 °C 57.7 °F /  14.3 °C 29.64in /  1003.6hPa North 1.0mph /  1.6km/h 4.0mph /  6.4km/h 73% 0.00in /  0mm
20:25 66.4 °F /  19.1 °C 57.5 °F /  14.2 °C 29.64in /  1003.6hPa ENE 2.0mph /  3.2km/h 7.0mph /  11.3km/h 73% 0.00in /  0mm
20:30 66.3 °F /  19.1 °C 57.4 °F /  14.1 °C 29.64in /  1003.6hPa NE 2.0mph /  3.2km/h 7.0mph /  11.3km/h 73% 0.00in /  0mm
20:35 66.0 °F /  18.9 °C 57.5 °F /  14.2 °C 29.64in /  1003.6hPa NE 3.0mph /  4.8km/h 6.0mph /  9.7km/h 74% 0.00in /  0mm
20:40 65.6 °F /  18.7 °C 57.1 °F /  13.9 °C 29.64in /  1003.6hPa NE 2.0mph /  3.2km/h 5.0mph /  8km/h 74% 0.00in /  0mm
20:45 65.2 °F /  18.4 °C 57.1 °F /  13.9 °C 29.64in /  1003.6hPa NNE 2.0mph /  3.2km/h 5.0mph /  8km/h 75% 0.00in /  0mm
20:50 65.1 °F /  18.4 °C 57.0 °F /  13.9 °C 29.64in /  1003.6hPa NE 3.0mph /  4.8km/h 7.0mph /  11.3km/h 75% 0.00in /  0mm
20:55 64.9 °F /  18.3 °C 56.8 °F /  13.8 °C 29.65in /  1003.9hPa NE 2.0mph /  3.2km/h 4.0mph /  6.4km/h 75% 0.00in /  0mm
21:00 64.7 °F /  18.2 °C 57.0 °F /  13.9 °C 29.65in /  1003.9hPa NE 1.0mph /  1.6km/h 7.0mph /  11.3km/h 76% 0.00in /  0mm
21:05 64.5 °F /  18.1 °C 56.8 °F /  13.8 °C 29.64in /  1003.6hPa NE 3.0mph /  4.8km/h 7.0mph /  11.3km/h 76% 0.00in /  0mm
21:10 64.3 °F /  17.9 °C 56.6 °F /  13.7 °C 29.64in /  1003.6hPa NE 2.0mph /  3.2km/h 7.0mph /  11.3km/h 76% 0.00in /  0mm
21:15 64.2 °F /  17.9 °C 56.5 °F /  13.6 °C 29.64in /  1003.6hPa NE 3.0mph /  4.8km/h 4.0mph /  6.4km/h 76% 0.00in /  0mm
21:20 64.2 °F /  17.9 °C 56.5 °F /  13.6 °C 29.64in /  1003.6hPa Calm   5.0mph /  8km/h 76% 0.00in /  0mm
21:25 64.0 °F /  17.8 °C 56.6 °F /  13.7 °C 29.65in /  1003.9hPa ENE 2.0mph /  3.2km/h 4.0mph /  6.4km/h 77% 0.00in /  0mm
21:30 63.8 °F /  17.7 °C 56.4 °F /  13.6 °C 29.65in /  1003.9hPa ENE 1.0mph /  1.6km/h 4.0mph /  6.4km/h 77% 0.00in /  0mm
21:35 63.3 °F /  17.4 °C 56.3 °F /  13.5 °C 29.65in /  1003.9hPa Calm   2.0mph /  3.2km/h 78% 0.00in /  0mm
21:40 63.2 °F /  17.3 °C 56.2 °F /  13.4 °C 29.65in /  1003.9hPa Calm     78% 0.00in /  0mm
21:45 63.0 °F /  17.2 °C 56.0 °F /  13.3 °C 29.65in /  1003.9hPa Calm     78% 0.00in /  0mm
21:50 62.9 °F /  17.2 °C 55.9 °F /  13.3 °C 29.65in /  1003.9hPa Calm     78% 0.00in /  0mm
21:55 62.6 °F /  17 °C 56.0 °F /  13.3 °C 29.65in /  1003.9hPa Calm     79% 0.00in /  0mm
22:00 62.6 °F /  17 °C 56.0 °F /  13.3 °C 29.65in /  1003.9hPa Calm     79% 0.00in /  0mm
22:05 62.5 °F /  16.9 °C 55.9 °F /  13.3 °C 29.66in /  1004.3hPa Calm     79% 0.00in /  0mm
22:10 62.2 °F /  16.8 °C 55.6 °F /  13.1 °C 29.66in /  1004.3hPa Calm     79% 0.00in /  0mm
22:15 61.9 °F /  16.6 °C 55.7 °F /  13.2 °C 29.66in /  1004.3hPa Calm     80% 0.00in /  0mm
22:20 61.5 °F /  16.4 °C 55.3 °F /  12.9 °C 29.66in /  1004.3hPa Calm     80% 0.00in /  0mm
22:25 61.4 °F /  16.3 °C 55.5 °F /  13.1 °C 29.66in /  1004.3hPa Calm     81% 0.00in /  0mm
22:30 61.2 °F /  16.2 °C 55.3 °F /  12.9 °C 29.66in /  1004.3hPa Calm     81% 0.00in /  0mm
22:35 60.8 °F /  16 °C 55.3 °F /  12.9 °C 29.67in /  1004.6hPa Calm     82% 0.00in /  0mm
22:40 60.7 °F /  15.9 °C 55.2 °F /  12.9 °C 29.67in /  1004.6hPa Calm     82% 0.00in /  0mm
22:45 60.8 °F /  16 °C 55.3 °F /  12.9 °C 29.67in /  1004.6hPa WNW 2.0mph /  3.2km/h 3.0mph /  4.8km/h 82% 0.00in /  0mm
22:50 60.7 °F /  15.9 °C 55.2 °F /  12.9 °C 29.67in /  1004.6hPa Calm   2.0mph /  3.2km/h 82% 0.00in /  0mm
22:55 60.7 °F /  15.9 °C 55.2 °F /  12.9 °C 29.67in /  1004.6hPa Calm     82% 0.00in /  0mm
23:00 60.7 °F /  15.9 °C 55.2 °F /  12.9 °C 29.67in /  1004.6hPa Calm     82% 0.00in /  0mm
23:05 60.8 °F /  16 °C 55.3 °F /  12.9 °C 29.67in /  1004.6hPa Calm     82% 0.00in /  0mm
23:10 60.6 °F /  15.9 °C 55.1 °F /  12.8 °C 29.68in /  1005hPa Calm     82% 0.00in /  0mm
23:15 60.6 °F /  15.9 °C 55.1 °F /  12.8 °C 29.68in /  1005hPa Calm     82% 0.00in /  0mm
23:20 60.5 °F /  15.8 °C 55.0 °F /  12.8 °C 29.68in /  1005hPa Calm     82% 0.00in /  0mm
23:25 60.3 °F /  15.7 °C 54.8 °F /  12.7 °C 29.68in /  1005hPa Calm     82% 0.00in /  0mm
23:30 59.9 °F /  15.5 °C 54.7 °F /  12.6 °C 29.68in /  1005hPa Calm     83% 0.00in /  0mm
23:35 59.6 °F /  15.3 °C 54.8 °F /  12.7 °C 29.68in /  1005hPa Calm     84% 0.00in /  0mm
23:40 59.4 °F /  15.2 °C 54.6 °F /  12.6 °C 29.68in /  1005hPa Calm     84% 0.00in /  0mm
23:45 59.1 °F /  15.1 °C 54.3 °F /  12.4 °C 29.68in /  1005hPa Calm     84% 0.00in /  0mm
23:50 58.9 °F /  14.9 °C 54.4 °F /  12.4 °C 29.68in /  1005hPa Calm     85% 0.00in /  0mm
23:55 58.7 °F /  14.8 °C 54.2 °F /  12.3 °C 29.68in /  1005hPa Calm     85% 0.00in /  0mm
Buffalo, New York, USA
Compliments of Weather Underground - 2.5 mb